sensor_id;sensor_type;location;lat;lon;timestamp;temperature;humidity
6256;DHT22;3161;48.794;9.784;2022-09-12T00:01:13;14.00;99.90
6256;DHT22;3161;48.794;9.784;2022-09-12T00:03:41;13.90;99.90
6256;DHT22;3161;48.794;9.784;2022-09-12T00:06:12;13.90;99.90
6256;DHT22;3161;48.794;9.784;2022-09-12T00:08:40;13.90;99.90
6256;DHT22;3161;48.794;9.784;2022-09-12T00:11:09;13.80;99.90
6256;DHT22;3161;48.794;9.784;2022-09-12T00:13:38;13.80;99.90
6256;DHT22;3161;48.794;9.784;2022-09-12T00:16:06;13.80;99.90
6256;DHT22;3161;48.794;9.784;2022-09-12T00:18:34;13.80;99.90
6256;DHT22;3161;48.794;9.784;2022-09-12T00:21:03;13.80;99.90
6256;DHT22;3161;48.794;9.784;2022-09-12T00:23:31;13.80;99.90
6256;DHT22;3161;48.794;9.784;2022-09-12T00:25:59;13.70;99.90
6256;DHT22;3161;48.794;9.784;2022-09-12T00:28:28;13.70;99.90
6256;DHT22;3161;48.794;9.784;2022-09-12T00:30:56;13.70;99.90
6256;DHT22;3161;48.794;9.784;2022-09-12T00:33:23;13.70;99.90
6256;DHT22;3161;48.794;9.784;2022-09-12T00:35:51;13.60;99.90
6256;DHT22;3161;48.794;9.784;2022-09-12T00:38:19;13.60;99.90
6256;DHT22;3161;48.794;9.784;2022-09-12T00:40:48;13.60;99.90
6256;DHT22;3161;48.794;9.784;2022-09-12T00:43:38;13.60;99.90
6256;DHT22;3161;48.794;9.784;2022-09-12T00:46:20;13.50;99.90
6256;DHT22;3161;48.794;9.784;2022-09-12T00:48:59;13.50;99.90
6256;DHT22;3161;48.794;9.784;2022-09-12T00:51:25;13.50;99.90
6256;DHT22;3161;48.794;9.784;2022-09-12T00:53:54;13.50;99.90
6256;DHT22;3161;48.794;9.784;2022-09-12T00:56:23;13.50;99.90
6256;DHT22;3161;48.794;9.784;2022-09-12T00:58:58;13.40;99.90
6256;DHT22;3161;48.794;9.784;2022-09-12T01:01:21;13.40;99.90
6256;DHT22;3161;48.794;9.784;2022-09-12T01:03:49;13.40;99.90
6256;DHT22;3161;48.794;9.784;2022-09-12T01:06:29;13.40;99.90
6256;DHT22;3161;48.794;9.784;2022-09-12T01:08:57;13.40;99.90
6256;DHT22;3161;48.794;9.784;2022-09-12T01:11:27;13.30;99.90
6256;DHT22;3161;48.794;9.784;2022-09-12T01:13:55;13.30;99.90
6256;DHT22;3161;48.794;9.784;2022-09-12T01:16:23;13.30;99.90
6256;DHT22;3161;48.794;9.784;2022-09-12T01:19:31;13.30;99.90
6256;DHT22;3161;48.794;9.784;2022-09-12T01:22:03;13.20;99.90
6256;DHT22;3161;48.794;9.784;2022-09-12T01:27:41;13.20;99.90
6256;DHT22;3161;48.794;9.784;2022-09-12T01:36:16;13.10;99.90
6256;DHT22;3161;48.794;9.784;2022-09-12T01:39:05;13.00;99.90
6256;DHT22;3161;48.794;9.784;2022-09-12T01:47:26;12.90;99.90
6256;DHT22;3161;48.794;9.784;2022-09-12T01:49:57;12.90;99.90
6256;DHT22;3161;48.794;9.784;2022-09-12T01:52:47;12.90;99.90
6256;DHT22;3161;48.794;9.784;2022-09-12T01:55:13;12.90;99.90
6256;DHT22;3161;48.794;9.784;2022-09-12T01:57:53;12.90;99.90
6256;DHT22;3161;48.794;9.784;2022-09-12T02:00:19;12.80;99.90
6256;DHT22;3161;48.794;9.784;2022-09-12T02:03:06;12.80;99.90
6256;DHT22;3161;48.794;9.784;2022-09-12T02:05:35;12.80;99.90
6256;DHT22;3161;48.794;9.784;2022-09-12T02:08:14;12.80;99.90
6256;DHT22;3161;48.794;9.784;2022-09-12T02:11:02;12.80;99.90
6256;DHT22;3161;48.794;9.784;2022-09-12T02:16:10;12.70;99.90
6256;DHT22;3161;48.794;9.784;2022-09-12T02:18:43;12.70;99.90
6256;DHT22;3161;48.794;9.784;2022-09-12T02:21:11;12.70;99.90
6256;DHT22;3161;48.794;9.784;2022-09-12T02:23:42;12.70;99.90
6256;DHT22;3161;48.794;9.784;2022-09-12T02:26:14;12.70;99.90
6256;DHT22;3161;48.794;9.784;2022-09-12T02:28:42;12.70;99.90
6256;DHT22;3161;48.794;9.784;2022-09-12T02:36:46;12.60;99.90
6256;DHT22;3161;48.794;9.784;2022-09-12T02:39:13;12.60;99.90
6256;DHT22;3161;48.794;9.784;2022-09-12T02:41:42;12.50;99.90
6256;DHT22;3161;48.794;9.784;2022-09-12T02:44:09;12.50;99.90
6256;DHT22;3161;48.794;9.784;2022-09-12T02:46:43;12.50;99.90
6256;DHT22;3161;48.794;9.784;2022-09-12T02:49:11;12.50;99.90
6256;DHT22;3161;48.794;9.784;2022-09-12T02:51:39;12.50;99.90
6256;DHT22;3161;48.794;9.784;2022-09-12T02:54:08;12.50;99.90
6256;DHT22;3161;48.794;9.784;2022-09-12T02:56:42;12.40;99.90
6256;DHT22;3161;48.794;9.784;2022-09-12T02:59:13;12.40;99.90
6256;DHT22;3161;48.794;9.784;2022-09-12T03:04:46;12.40;99.90
6256;DHT22;3161;48.794;9.784;2022-09-12T03:07:19;12.40;99.90
6256;DHT22;3161;48.794;9.784;2022-09-12T03:15:21;12.30;99.90
6256;DHT22;3161;48.794;9.784;2022-09-12T03:23:20;12.20;99.90
6256;DHT22;3161;48.794;9.784;2022-09-12T03:25:53;12.20;99.90
6256;DHT22;3161;48.794;9.784;2022-09-12T03:28:21;12.20;99.90
6256;DHT22;3161;48.794;9.784;2022-09-12T03:30:50;12.20;99.90
6256;DHT22;3161;48.794;9.784;2022-09-12T03:33:21;12.10;99.90
6256;DHT22;3161;48.794;9.784;2022-09-12T03:35:50;12.10;99.90
6256;DHT22;3161;48.794;9.784;2022-09-12T03:38:18;12.10;99.90
6256;DHT22;3161;48.794;9.784;2022-09-12T03:40:46;12.10;99.90
6256;DHT22;3161;48.794;9.784;2022-09-12T03:43:13;12.10;99.90
6256;DHT22;3161;48.794;9.784;2022-09-12T03:45:41;12.00;99.90
6256;DHT22;3161;48.794;9.784;2022-09-12T03:48:08;12.00;99.90
6256;DHT22;3161;48.794;9.784;2022-09-12T03:50:36;12.00;99.90
6256;DHT22;3161;48.794;9.784;2022-09-12T03:53:03;12.00;99.90
6256;DHT22;3161;48.794;9.784;2022-09-12T03:55:31;12.00;99.90
6256;DHT22;3161;48.794;9.784;2022-09-12T03:57:59;11.90;99.90
6256;DHT22;3161;48.794;9.784;2022-09-12T04:00:26;11.90;99.90
6256;DHT22;3161;48.794;9.784;2022-09-12T04:02:55;11.90;99.90
6256;DHT22;3161;48.794;9.784;2022-09-12T04:05:24;11.90;99.90
6256;DHT22;3161;48.794;9.784;2022-09-12T04:07:52;11.90;99.90
6256;DHT22;3161;48.794;9.784;2022-09-12T04:10:19;11.90;99.90
6256;DHT22;3161;48.794;9.784;2022-09-12T04:12:48;11.90;99.90
6256;DHT22;3161;48.794;9.784;2022-09-12T04:15:15;11.90;99.90
6256;DHT22;3161;48.794;9.784;2022-09-12T04:17:43;11.90;99.90
6256;DHT22;3161;48.794;9.784;2022-09-12T04:20:10;11.80;99.90
6256;DHT22;3161;48.794;9.784;2022-09-12T04:22:38;11.80;99.90
6256;DHT22;3161;48.794;9.784;2022-09-12T04:25:06;11.80;99.90
6256;DHT22;3161;48.794;9.784;2022-09-12T04:27:35;11.80;99.90
6256;DHT22;3161;48.794;9.784;2022-09-12T04:30:03;11.80;99.90
6256;DHT22;3161;48.794;9.784;2022-09-12T04:32:31;11.70;99.90
6256;DHT22;3161;48.794;9.784;2022-09-12T04:34:58;11.70;99.90
6256;DHT22;3161;48.794;9.784;2022-09-12T04:37:26;11.70;99.90
6256;DHT22;3161;48.794;9.784;2022-09-12T04:39:53;11.70;99.90
6256;DHT22;3161;48.794;9.784;2022-09-12T04:42:24;11.70;99.90
6256;DHT22;3161;48.794;9.784;2022-09-12T04:44:51;11.70;99.90
6256;DHT22;3161;48.794;9.784;2022-09-12T04:47:19;11.70;99.90
6256;DHT22;3161;48.794;9.784;2022-09-12T04:49:48;11.70;99.90
6256;DHT22;3161;48.794;9.784;2022-09-12T04:52:16;11.70;99.90
6256;DHT22;3161;48.794;9.784;2022-09-12T04:54:44;11.60;99.90
6256;DHT22;3161;48.794;9.784;2022-09-12T04:57:12;11.60;99.90
6256;DHT22;3161;48.794;9.784;2022-09-12T04:59:39;11.60;99.90
6256;DHT22;3161;48.794;9.784;2022-09-12T05:02:07;11.60;99.90
6256;DHT22;3161;48.794;9.784;2022-09-12T05:04:34;11.60;99.90
6256;DHT22;3161;48.794;9.784;2022-09-12T05:07:02;11.60;99.90
6256;DHT22;3161;48.794;9.784;2022-09-12T05:09:31;11.60;99.90
6256;DHT22;3161;48.794;9.784;2022-09-12T05:11:58;11.60;99.90
6256;DHT22;3161;48.794;9.784;2022-09-12T05:14:26;11.60;99.90
6256;DHT22;3161;48.794;9.784;2022-09-12T05:16:54;11.60;99.90
6256;DHT22;3161;48.794;9.784;2022-09-12T05:19:23;11.60;99.90
6256;DHT22;3161;48.794;9.784;2022-09-12T05:21:50;11.60;99.90
6256;DHT22;3161;48.794;9.784;2022-09-12T05:24:18;11.60;99.90
6256;DHT22;3161;48.794;9.784;2022-09-12T05:26:45;11.60;99.90
6256;DHT22;3161;48.794;9.784;2022-09-12T05:29:13;11.60;99.90
6256;DHT22;3161;48.794;9.784;2022-09-12T05:31:40;11.60;99.90
6256;DHT22;3161;48.794;9.784;2022-09-12T05:34:08;11.60;99.90
6256;DHT22;3161;48.794;9.784;2022-09-12T05:36:36;11.60;99.90
6256;DHT22;3161;48.794;9.784;2022-09-12T05:39:04;11.60;99.90
6256;DHT22;3161;48.794;9.784;2022-09-12T05:41:32;11.70;99.90
6256;DHT22;3161;48.794;9.784;2022-09-12T05:44:03;11.70;99.90
6256;DHT22;3161;48.794;9.784;2022-09-12T05:46:37;11.70;99.90
6256;DHT22;3161;48.794;9.784;2022-09-12T05:49:11;11.80;99.90
6256;DHT22;3161;48.794;9.784;2022-09-12T05:51:37;11.80;99.90
6256;DHT22;3161;48.794;9.784;2022-09-12T05:54:08;11.80;99.90
6256;DHT22;3161;48.794;9.784;2022-09-12T05:56:40;11.90;99.90
6256;DHT22;3161;48.794;9.784;2022-09-12T05:59:18;11.90;99.90
6256;DHT22;3161;48.794;9.784;2022-09-12T06:01:42;11.90;99.90
6256;DHT22;3161;48.794;9.784;2022-09-12T06:04:10;12.00;99.90
6256;DHT22;3161;48.794;9.784;2022-09-12T06:06:41;12.10;99.90
6256;DHT22;3161;48.794;9.784;2022-09-12T06:09:12;12.10;99.90
6256;DHT22;3161;48.794;9.784;2022-09-12T06:11:40;12.20;99.90
6256;DHT22;3161;48.794;9.784;2022-09-12T06:14:09;12.30;99.90
6256;DHT22;3161;48.794;9.784;2022-09-12T06:16:37;12.40;99.90
6256;DHT22;3161;48.794;9.784;2022-09-12T06:19:10;12.50;99.90
6256;DHT22;3161;48.794;9.784;2022-09-12T06:21:36;12.60;99.90
6256;DHT22;3161;48.794;9.784;2022-09-12T06:24:05;12.70;99.90
6256;DHT22;3161;48.794;9.784;2022-09-12T06:26:33;12.80;99.90
6256;DHT22;3161;48.794;9.784;2022-09-12T06:29:01;12.90;99.90
6256;DHT22;3161;48.794;9.784;2022-09-12T06:31:31;13.00;99.90
6256;DHT22;3161;48.794;9.784;2022-09-12T06:34:02;13.10;99.90
6256;DHT22;3161;48.794;9.784;2022-09-12T06:36:39;13.20;99.90
6256;DHT22;3161;48.794;9.784;2022-09-12T06:39:12;13.40;99.90
6256;DHT22;3161;48.794;9.784;2022-09-12T06:41:41;13.50;99.90
6256;DHT22;3161;48.794;9.784;2022-09-12T06:44:18;13.70;99.90
6256;DHT22;3161;48.794;9.784;2022-09-12T06:46:42;13.80;99.90
6256;DHT22;3161;48.794;9.784;2022-09-12T06:49:10;13.90;99.90
6256;DHT22;3161;48.794;9.784;2022-09-12T06:51:38;14.10;99.90
6256;DHT22;3161;48.794;9.784;2022-09-12T06:54:07;14.20;99.90
6256;DHT22;3161;48.794;9.784;2022-09-12T06:56:36;14.30;99.90
6256;DHT22;3161;48.794;9.784;2022-09-12T06:59:03;14.50;99.90
6256;DHT22;3161;48.794;9.784;2022-09-12T07:01:31;14.70;99.90
6256;DHT22;3161;48.794;9.784;2022-09-12T07:04:00;14.80;99.90
6256;DHT22;3161;48.794;9.784;2022-09-12T07:06:34;15.00;99.90
6256;DHT22;3161;48.794;9.784;2022-09-12T07:09:01;15.20;99.90
6256;DHT22;3161;48.794;9.784;2022-09-12T07:11:31;15.40;99.90
6256;DHT22;3161;48.794;9.784;2022-09-12T07:14:00;15.60;99.90
6256;DHT22;3161;48.794;9.784;2022-09-12T07:16:29;15.90;99.90
6256;DHT22;3161;48.794;9.784;2022-09-12T07:18:58;16.20;99.90
6256;DHT22;3161;48.794;9.784;2022-09-12T07:21:26;16.50;99.90
6256;DHT22;3161;48.794;9.784;2022-09-12T07:23:54;16.90;99.90
6256;DHT22;3161;48.794;9.784;2022-09-12T07:26:26;17.40;99.90
6256;DHT22;3161;48.794;9.784;2022-09-12T07:28:55;18.40;99.90
6256;DHT22;3161;48.794;9.784;2022-09-12T07:31:24;19.60;99.90
6256;DHT22;3161;48.794;9.784;2022-09-12T07:33:52;20.80;99.90
6256;DHT22;3161;48.794;9.784;2022-09-12T07:36:21;21.80;99.90
6256;DHT22;3161;48.794;9.784;2022-09-12T07:38:55;22.60;99.90
6256;DHT22;3161;48.794;9.784;2022-09-12T07:41:25;23.30;99.90
6256;DHT22;3161;48.794;9.784;2022-09-12T07:43:55;24.30;99.90
6256;DHT22;3161;48.794;9.784;2022-09-12T07:46:24;25.20;99.90
6256;DHT22;3161;48.794;9.784;2022-09-12T07:48:54;26.10;99.90
6256;DHT22;3161;48.794;9.784;2022-09-12T07:51:25;26.90;99.90
6256;DHT22;3161;48.794;9.784;2022-09-12T07:53:52;27.50;99.00
6256;DHT22;3161;48.794;9.784;2022-09-12T07:56:20;28.00;97.70
6256;DHT22;3161;48.794;9.784;2022-09-12T07:58:47;28.50;94.80
6256;DHT22;3161;48.794;9.784;2022-09-12T08:01:21;28.90;92.70
6256;DHT22;3161;48.794;9.784;2022-09-12T08:03:47;29.00;92.00
6256;DHT22;3161;48.794;9.784;2022-09-12T08:06:17;28.90;91.60
6256;DHT22;3161;48.794;9.784;2022-09-12T08:08:47;28.50;91.40
6256;DHT22;3161;48.794;9.784;2022-09-12T08:11:17;27.90;92.70
6256;DHT22;3161;48.794;9.784;2022-09-12T08:13:45;27.40;93.30
6256;DHT22;3161;48.794;9.784;2022-09-12T08:16:20;26.90;94.50
6256;DHT22;3161;48.794;9.784;2022-09-12T08:18:44;27.00;95.10
6256;DHT22;3161;48.794;9.784;2022-09-12T08:21:14;26.20;97.50
6256;DHT22;3161;48.794;9.784;2022-09-12T08:23:43;26.10;97.40
6256;DHT22;3161;48.794;9.784;2022-09-12T08:26:12;26.00;97.00
6256;DHT22;3161;48.794;9.784;2022-09-12T08:28:39;26.00;97.00
6256;DHT22;3161;48.794;9.784;2022-09-12T08:31:11;26.10;97.40
6256;DHT22;3161;48.794;9.784;2022-09-12T08:33:39;26.20;97.80
6256;DHT22;3161;48.794;9.784;2022-09-12T08:36:13;26.10;96.40
6256;DHT22;3161;48.794;9.784;2022-09-12T08:38:43;26.10;96.90
6256;DHT22;3161;48.794;9.784;2022-09-12T08:41:31;26.00;96.30
6256;DHT22;3161;48.794;9.784;2022-09-12T08:53:00;25.40;95.70
6256;DHT22;3161;48.794;9.784;2022-09-12T08:58:12;25.00;97.20
6256;DHT22;3161;48.794;9.784;2022-09-12T09:09:35;24.40;98.50
6256;DHT22;3161;48.794;9.784;2022-09-12T09:12:16;24.30;99.00
6256;DHT22;3161;48.794;9.784;2022-09-12T09:17:40;24.30;99.00
6256;DHT22;3161;48.794;9.784;2022-09-12T09:23:04;24.40;98.80
6256;DHT22;3161;48.794;9.784;2022-09-12T09:25:37;24.40;97.90
6256;DHT22;3161;48.794;9.784;2022-09-12T09:28:10;24.40;97.40
6256;DHT22;3161;48.794;9.784;2022-09-12T09:30:44;24.40;96.60
6256;DHT22;3161;48.794;9.784;2022-09-12T09:33:08;24.50;96.90
6256;DHT22;3161;48.794;9.784;2022-09-12T09:35:43;24.60;96.70
6256;DHT22;3161;48.794;9.784;2022-09-12T09:38:23;24.70;96.90
6256;DHT22;3161;48.794;9.784;2022-09-12T09:43:44;24.90;96.30
6256;DHT22;3161;48.794;9.784;2022-09-12T09:46:12;25.00;97.00
6256;DHT22;3161;48.794;9.784;2022-09-12T09:48:47;25.00;94.80
6256;DHT22;3161;48.794;9.784;2022-09-12T09:51:19;25.00;93.50
6256;DHT22;3161;48.794;9.784;2022-09-12T09:56:38;24.80;96.20
6256;DHT22;3161;48.794;9.784;2022-09-12T10:01:57;24.80;95.00
6256;DHT22;3161;48.794;9.784;2022-09-12T10:04:24;24.80;94.20
6256;DHT22;3161;48.794;9.784;2022-09-12T10:06:59;24.80;94.20
6256;DHT22;3161;48.794;9.784;2022-09-12T10:09:27;24.70;97.20
6256;DHT22;3161;48.794;9.784;2022-09-12T10:11:56;24.60;94.60
6256;DHT22;3161;48.794;9.784;2022-09-12T10:14:35;24.60;95.30
6256;DHT22;3161;48.794;9.784;2022-09-12T10:19:49;24.70;95.20
6256;DHT22;3161;48.794;9.784;2022-09-12T10:22:21;24.70;94.50
6256;DHT22;3161;48.794;9.784;2022-09-12T10:24:51;24.70;94.20
6256;DHT22;3161;48.794;9.784;2022-09-12T10:27:29;24.70;93.50
6256;DHT22;3161;48.794;9.784;2022-09-12T10:29:59;24.70;91.70
6256;DHT22;3161;48.794;9.784;2022-09-12T10:32:29;24.70;91.90
6256;DHT22;3161;48.794;9.784;2022-09-12T10:35:03;24.80;90.60
6256;DHT22;3161;48.794;9.784;2022-09-12T10:37:35;24.70;91.50
6256;DHT22;3161;48.794;9.784;2022-09-12T10:40:05;24.70;92.20
6256;DHT22;3161;48.794;9.784;2022-09-12T10:42:52;24.70;92.80
6256;DHT22;3161;48.794;9.784;2022-09-12T10:45:35;24.60;92.00
6256;DHT22;3161;48.794;9.784;2022-09-12T10:50:50;24.50;90.80
6256;DHT22;3161;48.794;9.784;2022-09-12T10:53:25;24.50;92.90
6256;DHT22;3161;48.794;9.784;2022-09-12T10:56:23;24.50;91.40
6256;DHT22;3161;48.794;9.784;2022-09-12T11:01:38;24.40;91.80
6256;DHT22;3161;48.794;9.784;2022-09-12T11:06:57;24.50;92.70
6256;DHT22;3161;48.794;9.784;2022-09-12T11:14:51;24.50;91.90
6256;DHT22;3161;48.794;9.784;2022-09-12T11:20:18;24.60;92.10
6256;DHT22;3161;48.794;9.784;2022-09-12T11:22:59;24.70;91.70
6256;DHT22;3161;48.794;9.784;2022-09-12T11:25:34;24.60;91.30
6256;DHT22;3161;48.794;9.784;2022-09-12T11:34:01;24.80;91.70
6256;DHT22;3161;48.794;9.784;2022-09-12T11:36:50;24.80;91.60
6256;DHT22;3161;48.794;9.784;2022-09-12T11:39:20;24.80;90.20
6256;DHT22;3161;48.794;9.784;2022-09-12T11:41:54;24.80;92.30
6256;DHT22;3161;48.794;9.784;2022-09-12T11:44:23;25.00;90.80
6256;DHT22;3161;48.794;9.784;2022-09-12T11:46:51;25.10;92.10
6256;DHT22;3161;48.794;9.784;2022-09-12T11:49:35;25.20;91.60
6256;DHT22;3161;48.794;9.784;2022-09-12T11:52:06;25.30;88.00
6256;DHT22;3161;48.794;9.784;2022-09-12T12:03:19;25.40;88.80
6256;DHT22;3161;48.794;9.784;2022-09-12T12:08:01;25.30;90.00
6256;DHT22;3161;48.794;9.784;2022-09-12T12:10:42;25.30;88.40
6256;DHT22;3161;48.794;9.784;2022-09-12T12:13:25;25.40;89.00
6256;DHT22;3161;48.794;9.784;2022-09-12T12:15:58;25.50;85.50
6256;DHT22;3161;48.794;9.784;2022-09-12T12:18:27;25.50;85.90
6256;DHT22;3161;48.794;9.784;2022-09-12T12:23:32;25.70;88.60
6256;DHT22;3161;48.794;9.784;2022-09-12T12:26:01;25.80;86.80
6256;DHT22;3161;48.794;9.784;2022-09-12T12:28:56;25.90;79.80
6256;DHT22;3161;48.794;9.784;2022-09-12T12:31:03;25.90;77.50
6256;DHT22;3161;48.794;9.784;2022-09-12T12:36:07;25.60;80.40
6256;DHT22;3161;48.794;9.784;2022-09-12T12:38:37;25.60;81.60
6256;DHT22;3161;48.794;9.784;2022-09-12T12:43:51;25.60;83.50
6256;DHT22;3161;48.794;9.784;2022-09-12T12:46:23;25.70;79.70
6256;DHT22;3161;48.794;9.784;2022-09-12T12:49:04;25.80;75.90
6256;DHT22;3161;48.794;9.784;2022-09-12T12:51:53;25.90;75.90
6256;DHT22;3161;48.794;9.784;2022-09-12T12:57:20;26.10;75.90
6256;DHT22;3161;48.794;9.784;2022-09-12T13:00:04;26.20;73.50
6256;DHT22;3161;48.794;9.784;2022-09-12T13:02:33;26.30;76.00
6256;DHT22;3161;48.794;9.784;2022-09-12T13:05:03;26.50;76.00
6256;DHT22;3161;48.794;9.784;2022-09-12T13:07:35;26.70;77.60
6256;DHT22;3161;48.794;9.784;2022-09-12T13:10:05;26.70;77.10
6256;DHT22;3161;48.794;9.784;2022-09-12T13:12:43;26.80;72.40
6256;DHT22;3161;48.794;9.784;2022-09-12T13:15:50;26.90;72.90
6256;DHT22;3161;48.794;9.784;2022-09-12T13:17:42;27.00;73.60
6256;DHT22;3161;48.794;9.784;2022-09-12T13:20:17;27.00;69.10
6256;DHT22;3161;48.794;9.784;2022-09-12T13:22:47;27.00;70.70
6256;DHT22;3161;48.794;9.784;2022-09-12T13:25:22;27.10;70.30
6256;DHT22;3161;48.794;9.784;2022-09-12T13:30:27;27.20;66.90
6256;DHT22;3161;48.794;9.784;2022-09-12T13:33:00;27.20;69.60
6256;DHT22;3161;48.794;9.784;2022-09-12T13:41:34;27.40;72.70
6256;DHT22;3161;48.794;9.784;2022-09-12T13:44:00;27.50;71.00
6256;DHT22;3161;48.794;9.784;2022-09-12T13:46:30;27.80;70.80
6256;DHT22;3161;48.794;9.784;2022-09-12T13:49:05;28.10;71.50
6256;DHT22;3161;48.794;9.784;2022-09-12T13:51:30;28.50;68.50
6256;DHT22;3161;48.794;9.784;2022-09-12T13:54:01;29.20;67.60
6256;DHT22;3161;48.794;9.784;2022-09-12T13:56:29;30.30;62.50
6256;DHT22;3161;48.794;9.784;2022-09-12T13:58:59;31.60;59.10
6256;DHT22;3161;48.794;9.784;2022-09-12T14:01:39;33.20;56.00
6256;DHT22;3161;48.794;9.784;2022-09-12T14:06:59;37.90;45.70
6256;DHT22;3161;48.794;9.784;2022-09-12T14:12:09;41.60;35.80
6256;DHT22;3161;48.794;9.784;2022-09-12T14:14:37;42.30;32.50
6256;DHT22;3161;48.794;9.784;2022-09-12T14:17:26;42.50;32.50
6256;DHT22;3161;48.794;9.784;2022-09-12T14:19:55;42.80;30.50
6256;DHT22;3161;48.794;9.784;2022-09-12T14:22:25;43.60;30.00
6256;DHT22;3161;48.794;9.784;2022-09-12T14:24:56;44.50;28.30
6256;DHT22;3161;48.794;9.784;2022-09-12T14:27:36;45.50;28.50
6256;DHT22;3161;48.794;9.784;2022-09-12T14:30:07;46.30;27.20
6256;DHT22;3161;48.794;9.784;2022-09-12T14:32:35;46.90;26.30
6256;DHT22;3161;48.794;9.784;2022-09-12T14:35:17;47.20;26.00
6256;DHT22;3161;48.794;9.784;2022-09-12T14:37:49;47.40;25.80
6256;DHT22;3161;48.794;9.784;2022-09-12T14:40:24;47.70;25.70
6256;DHT22;3161;48.794;9.784;2022-09-12T14:42:52;47.90;25.10
6256;DHT22;3161;48.794;9.784;2022-09-12T14:45:30;47.70;24.30
6256;DHT22;3161;48.794;9.784;2022-09-12T14:47:58;47.60;25.00
6256;DHT22;3161;48.794;9.784;2022-09-12T14:50:27;47.50;24.90
6256;DHT22;3161;48.794;9.784;2022-09-12T14:53:04;47.60;24.70
6256;DHT22;3161;48.794;9.784;2022-09-12T14:55:33;47.70;25.50
6256;DHT22;3161;48.794;9.784;2022-09-12T14:58:21;47.80;24.80
6256;DHT22;3161;48.794;9.784;2022-09-12T15:01:01;47.90;25.00
6256;DHT22;3161;48.794;9.784;2022-09-12T15:03:32;47.10;24.60
6256;DHT22;3161;48.794;9.784;2022-09-12T15:06:02;46.10;25.40
6256;DHT22;3161;48.794;9.784;2022-09-12T15:08:31;43.60;26.70
6256;DHT22;3161;48.794;9.784;2022-09-12T15:10:59;40.90;29.60
6256;DHT22;3161;48.794;9.784;2022-09-12T15:13:27;38.50;31.20
6256;DHT22;3161;48.794;9.784;2022-09-12T15:15:58;36.40;32.90
6256;DHT22;3161;48.794;9.784;2022-09-12T15:18:27;34.50;35.10
6256;DHT22;3161;48.794;9.784;2022-09-12T15:21:06;33.20;38.70
6256;DHT22;3161;48.794;9.784;2022-09-12T15:23:42;32.10;39.80
6256;DHT22;3161;48.794;9.784;2022-09-12T15:26:12;31.10;41.40
6256;DHT22;3161;48.794;9.784;2022-09-12T15:28:40;30.30;42.50
6256;DHT22;3161;48.794;9.784;2022-09-12T15:31:25;29.70;44.40
6256;DHT22;3161;48.794;9.784;2022-09-12T15:33:48;29.20;45.30
6256;DHT22;3161;48.794;9.784;2022-09-12T15:36:18;28.70;46.80
6256;DHT22;3161;48.794;9.784;2022-09-12T15:38:47;28.30;48.00
6256;DHT22;3161;48.794;9.784;2022-09-12T15:41:20;28.00;48.30
6256;DHT22;3161;48.794;9.784;2022-09-12T15:43:46;27.70;49.10
6256;DHT22;3161;48.794;9.784;2022-09-12T15:46:15;27.40;49.00
6256;DHT22;3161;48.794;9.784;2022-09-12T15:48:43;27.10;49.90
6256;DHT22;3161;48.794;9.784;2022-09-12T15:51:13;27.00;49.70
6256;DHT22;3161;48.794;9.784;2022-09-12T15:53:41;26.80;50.80
6256;DHT22;3161;48.794;9.784;2022-09-12T15:56:09;26.60;51.30
6256;DHT22;3161;48.794;9.784;2022-09-12T15:58:37;26.30;51.80
6256;DHT22;3161;48.794;9.784;2022-09-12T16:01:05;26.20;51.40
6256;DHT22;3161;48.794;9.784;2022-09-12T16:03:32;26.00;52.10
6256;DHT22;3161;48.794;9.784;2022-09-12T16:06:01;25.90;52.50
6256;DHT22;3161;48.794;9.784;2022-09-12T16:08:31;25.70;51.30
6256;DHT22;3161;48.794;9.784;2022-09-12T16:11:03;25.60;51.80
6256;DHT22;3161;48.794;9.784;2022-09-12T16:13:31;25.40;53.90
6256;DHT22;3161;48.794;9.784;2022-09-12T16:16:00;25.30;54.10
6256;DHT22;3161;48.794;9.784;2022-09-12T16:18:28;25.20;55.30
6256;DHT22;3161;48.794;9.784;2022-09-12T16:20:56;25.20;54.70
6256;DHT22;3161;48.794;9.784;2022-09-12T16:23:24;25.10;53.80
6256;DHT22;3161;48.794;9.784;2022-09-12T16:25:59;25.00;54.50
6256;DHT22;3161;48.794;9.784;2022-09-12T16:28:27;25.00;55.10
6256;DHT22;3161;48.794;9.784;2022-09-12T16:30:59;24.90;55.20
6256;DHT22;3161;48.794;9.784;2022-09-12T16:33:28;24.80;55.30
6256;DHT22;3161;48.794;9.784;2022-09-12T16:36:11;24.80;56.30
6256;DHT22;3161;48.794;9.784;2022-09-12T16:38:41;24.70;56.50
6256;DHT22;3161;48.794;9.784;2022-09-12T16:41:09;24.70;56.80
6256;DHT22;3161;48.794;9.784;2022-09-12T16:43:37;24.60;57.30
6256;DHT22;3161;48.794;9.784;2022-09-12T16:46:08;24.50;57.40
6256;DHT22;3161;48.794;9.784;2022-09-12T16:48:40;24.50;58.40
6256;DHT22;3161;48.794;9.784;2022-09-12T16:51:05;24.40;59.30
6256;DHT22;3161;48.794;9.784;2022-09-12T16:53:35;24.30;58.80
6256;DHT22;3161;48.794;9.784;2022-09-12T16:56:04;24.30;59.10
6256;DHT22;3161;48.794;9.784;2022-09-12T16:58:33;24.20;59.50
6256;DHT22;3161;48.794;9.784;2022-09-12T17:01:03;24.10;60.10
6256;DHT22;3161;48.794;9.784;2022-09-12T17:03:31;24.00;61.10
6256;DHT22;3161;48.794;9.784;2022-09-12T17:06:04;23.90;61.40
6256;DHT22;3161;48.794;9.784;2022-09-12T17:08:35;23.90;62.40
6256;DHT22;3161;48.794;9.784;2022-09-12T17:11:11;23.80;62.40
6256;DHT22;3161;48.794;9.784;2022-09-12T17:13:34;23.70;63.20
6256;DHT22;3161;48.794;9.784;2022-09-12T17:16:04;23.60;64.20
6256;DHT22;3161;48.794;9.784;2022-09-12T17:18:32;23.50;65.50
6256;DHT22;3161;48.794;9.784;2022-09-12T17:21:00;23.40;65.20
6256;DHT22;3161;48.794;9.784;2022-09-12T17:23:27;23.40;67.70
6256;DHT22;3161;48.794;9.784;2022-09-12T17:25:55;23.30;68.00
6256;DHT22;3161;48.794;9.784;2022-09-12T17:28:22;23.20;70.80
6256;DHT22;3161;48.794;9.784;2022-09-12T17:30:57;23.10;71.60
6256;DHT22;3161;48.794;9.784;2022-09-12T17:33:26;23.00;72.80
6256;DHT22;3161;48.794;9.784;2022-09-12T17:35:54;22.90;74.00
6256;DHT22;3161;48.794;9.784;2022-09-12T17:38:21;22.80;74.90
6256;DHT22;3161;48.794;9.784;2022-09-12T17:40:49;22.60;74.50
6256;DHT22;3161;48.794;9.784;2022-09-12T17:43:16;22.40;77.50
6256;DHT22;3161;48.794;9.784;2022-09-12T17:45:44;22.30;77.90
6256;DHT22;3161;48.794;9.784;2022-09-12T17:48:11;22.20;78.60
6256;DHT22;3161;48.794;9.784;2022-09-12T17:50:39;22.00;78.90
6256;DHT22;3161;48.794;9.784;2022-09-12T17:53:07;21.90;81.30
6256;DHT22;3161;48.794;9.784;2022-09-12T17:55:35;21.70;81.90
6256;DHT22;3161;48.794;9.784;2022-09-12T17:58:03;21.60;81.60
6256;DHT22;3161;48.794;9.784;2022-09-12T18:00:31;21.50;83.10
6256;DHT22;3161;48.794;9.784;2022-09-12T18:03:21;21.40;83.80
6256;DHT22;3161;48.794;9.784;2022-09-12T18:05:51;21.30;85.30
6256;DHT22;3161;48.794;9.784;2022-09-12T18:08:20;21.10;86.50
6256;DHT22;3161;48.794;9.784;2022-09-12T18:10:49;21.00;87.90
6256;DHT22;3161;48.794;9.784;2022-09-12T18:13:17;20.90;89.90
6256;DHT22;3161;48.794;9.784;2022-09-12T18:15:45;20.80;90.50
6256;DHT22;3161;48.794;9.784;2022-09-12T18:18:12;20.70;91.00
6256;DHT22;3161;48.794;9.784;2022-09-12T18:20:48;20.60;91.40
6256;DHT22;3161;48.794;9.784;2022-09-12T18:23:10;20.50;91.50
6256;DHT22;3161;48.794;9.784;2022-09-12T18:25:38;20.40;92.30
6256;DHT22;3161;48.794;9.784;2022-09-12T18:28:05;20.30;92.60
6256;DHT22;3161;48.794;9.784;2022-09-12T18:30:33;20.30;93.50
6256;DHT22;3161;48.794;9.784;2022-09-12T18:33:01;20.20;94.10
6256;DHT22;3161;48.794;9.784;2022-09-12T18:35:28;20.10;94.10
6256;DHT22;3161;48.794;9.784;2022-09-12T18:37:56;20.00;94.80